createdAt,value
2018-03-28T00:00:50.745Z,99.08
2018-03-28T00:03:20.192Z,98.80
2018-03-28T00:05:49.996Z,98.19
2018-03-28T00:08:19.257Z,98.43
2018-03-28T00:10:48.515Z,98.65
2018-03-28T00:13:17.671Z,98.80
2018-03-28T00:15:47.124Z,99.25
2018-03-28T00:18:16.261Z,98.64
2018-03-28T00:20:45.371Z,98.44
2018-03-28T00:23:14.489Z,98.41
2018-03-28T00:25:43.857Z,98.36
2018-03-28T00:28:13.217Z,98.48
2018-03-28T00:30:42.321Z,98.85
2018-03-28T00:33:11.474Z,98.46
2018-03-28T00:35:40.563Z,98.51
2018-03-28T00:38:09.755Z,99.02
2018-03-28T00:40:38.903Z,98.58
2018-03-28T00:43:08.210Z,98.25
2018-03-28T00:45:38.198Z,98.62
2018-03-28T00:48:07.368Z,99.52
2018-03-28T00:50:36.411Z,98.94
2018-03-28T00:53:05.702Z,99.18
2018-03-28T00:55:34.778Z,99.37
2018-03-28T00:58:03.941Z,99.34
2018-03-28T01:00:33.095Z,99.63
2018-03-28T01:03:02.141Z,99.83
2018-03-28T01:05:31.569Z,99.76
2018-03-28T01:08:00.573Z,99.70
2018-03-28T01:10:29.730Z,100.00
2018-03-28T01:12:59.042Z,100.00
2018-03-28T01:15:28.175Z,100.00
2018-03-28T01:17:57.356Z,100.00
2018-03-28T01:20:26.602Z,100.00
2018-03-28T01:22:55.743Z,100.00
2018-03-28T01:25:24.941Z,100.00
2018-03-28T01:27:54.283Z,100.00
2018-03-28T01:30:23.425Z,100.00
2018-03-28T01:32:52.626Z,100.00
2018-03-28T01:35:21.657Z,100.00
2018-03-28T01:37:50.827Z,100.00
2018-03-28T01:40:20.068Z,100.00
2018-03-28T01:42:49.835Z,100.00
2018-03-28T01:45:18.817Z,100.00
2018-03-28T01:47:47.780Z,100.00
2018-03-28T01:50:16.909Z,100.00
2018-03-28T01:52:45.901Z,100.00
2018-03-28T01:55:15.456Z,100.00
2018-03-28T01:57:44.449Z,100.00
2018-03-28T02:00:13.657Z,100.00
2018-03-28T02:02:42.819Z,100.00
2018-03-28T02:05:11.776Z,100.00
2018-03-28T02:07:40.885Z,100.00
2018-03-28T02:10:10.126Z,100.00
2018-03-28T02:12:39.547Z,100.00
2018-03-28T02:15:08.785Z,100.00
2018-03-28T02:17:38.237Z,100.00
2018-03-28T02:20:08.220Z,100.00
2018-03-28T02:22:37.449Z,100.00
2018-03-28T02:25:06.664Z,100.00
2018-03-28T02:27:35.742Z,100.00
2018-03-28T02:30:05.077Z,100.00
2018-03-28T02:32:34.249Z,100.00
2018-03-28T02:35:03.459Z,100.00
2018-03-28T02:37:32.711Z,100.00
2018-03-28T02:40:01.924Z,100.00
2018-03-28T02:42:31.210Z,100.00
2018-03-28T02:45:00.301Z,100.00
2018-03-28T02:47:29.678Z,100.00
2018-03-28T02:49:58.822Z,99.10
2018-03-28T02:52:28.034Z,97.77
2018-03-28T02:54:57.342Z,97.46
2018-03-28T02:57:26.605Z,98.25
2018-03-28T02:59:55.739Z,98.84
2018-03-28T03:02:24.734Z,99.91
2018-03-28T03:04:53.883Z,100.00
2018-03-28T03:07:22.871Z,99.44
2018-03-28T03:09:51.993Z,99.62
2018-03-28T03:12:21.015Z,98.56
2018-03-28T03:14:50.217Z,99.33
2018-03-28T03:17:19.181Z,98.90
2018-03-28T03:19:48.409Z,98.39
2018-03-28T03:22:17.648Z,96.18
2018-03-28T03:24:46.895Z,97.94
2018-03-28T03:27:15.949Z,99.01
2018-03-28T03:29:45.081Z,99.63
2018-03-28T03:32:14.083Z,99.20
2018-03-28T03:34:43.082Z,98.54
2018-03-28T03:37:12.350Z,97.23
2018-03-28T03:39:41.497Z,96.20
2018-03-28T03:42:10.783Z,97.03
2018-03-28T03:44:39.850Z,96.46
2018-03-28T03:47:09.082Z,98.02
2018-03-28T03:49:38.146Z,97.67
2018-03-28T03:52:07.139Z,95.83
2018-03-28T03:54:36.249Z,94.52
2018-03-28T03:57:05.586Z,95.43
2018-03-28T03:59:34.681Z,95.67
2018-03-28T04:02:04.467Z,95.92
2018-03-28T04:04:33.477Z,95.65
2018-03-28T04:07:02.569Z,95.39
2018-03-28T04:09:32.374Z,94.16
2018-03-28T04:12:01.545Z,94.28
2018-03-28T04:14:30.523Z,95.55
2018-03-28T04:16:59.541Z,96.77
2018-03-28T04:19:28.759Z,96.47
2018-03-28T04:21:57.677Z,94.50
2018-03-28T04:24:26.858Z,94.54
2018-03-28T04:26:55.848Z,95.50
2018-03-28T04:29:25.289Z,96.40
2018-03-28T04:31:54.340Z,97.08
2018-03-28T04:34:23.279Z,97.08
2018-03-28T04:36:52.327Z,96.94
2018-03-28T04:39:21.523Z,97.10
2018-03-28T04:41:50.594Z,99.49
2018-03-28T04:44:19.789Z,99.00
2018-03-28T04:46:49.223Z,98.07
2018-03-28T04:49:18.216Z,96.94
2018-03-28T04:51:47.247Z,97.77
2018-03-28T04:54:16.205Z,98.19
2018-03-28T04:56:45.473Z,97.69
2018-03-28T04:59:14.685Z,98.10
2018-03-28T05:01:44.047Z,98.06
2018-03-28T05:04:13.401Z,98.01
2018-03-28T05:06:42.437Z,97.36
2018-03-28T05:09:12.044Z,98.52
2018-03-28T05:11:41.105Z,98.63
2018-03-28T05:14:10.255Z,98.72
2018-03-28T05:16:39.604Z,98.34
2018-03-28T05:19:08.650Z,97.09
2018-03-28T05:21:37.598Z,95.74
2018-03-28T05:24:06.754Z,94.81
2018-03-28T05:26:35.921Z,95.82
2018-03-28T05:29:05.280Z,95.28
2018-03-28T05:31:34.342Z,93.52
2018-03-28T05:34:03.500Z,92.38
2018-03-28T05:36:32.782Z,92.50
2018-03-28T05:39:01.867Z,92.62
2018-03-28T05:41:31.113Z,92.87
2018-03-28T05:44:00.210Z,93.88
2018-03-28T05:46:29.260Z,93.46
2018-03-28T05:48:58.455Z,95.30
2018-03-28T05:51:27.684Z,94.51
2018-03-28T05:53:56.730Z,93.36
2018-03-28T05:56:26.033Z,91.44
2018-03-28T05:58:55.294Z,92.51
2018-03-28T06:01:26.085Z,93.92
2018-03-28T06:03:55.443Z,93.03
2018-03-28T06:06:24.650Z,93.22
2018-03-28T06:08:53.995Z,92.94
2018-03-28T06:11:23.076Z,90.81
2018-03-28T06:13:52.294Z,92.81
2018-03-28T06:16:21.488Z,93.86
2018-03-28T06:18:50.898Z,90.49
2018-03-28T06:21:20.262Z,92.52
2018-03-28T06:23:49.542Z,93.44
2018-03-28T06:26:18.672Z,93.08
2018-03-28T06:28:48.101Z,93.99
2018-03-28T06:31:17.264Z,93.88
2018-03-28T06:33:46.544Z,93.24
2018-03-28T06:36:15.800Z,93.15
2018-03-28T06:38:44.828Z,93.33
2018-03-28T06:41:14.085Z,88.19
2018-03-28T06:43:43.383Z,86.51
2018-03-28T06:46:12.479Z,86.41
2018-03-28T06:48:41.618Z,87.82
2018-03-28T06:51:11.041Z,86.06
2018-03-28T06:53:40.383Z,86.74
2018-03-28T06:56:09.683Z,89.74
2018-03-28T06:58:38.772Z,91.54
2018-03-28T07:01:08.025Z,89.19
2018-03-28T07:03:37.038Z,87.54
2018-03-28T07:06:06.110Z,85.52
2018-03-28T07:08:35.332Z,84.63
2018-03-28T07:11:04.668Z,85.68
2018-03-28T07:13:33.909Z,84.95
2018-03-28T07:16:03.264Z,84.72
2018-03-28T07:18:32.447Z,83.84
2018-03-28T07:21:01.782Z,83.68
2018-03-28T07:23:30.962Z,84.25
2018-03-28T07:26:00.167Z,84.74
2018-03-28T07:28:29.874Z,85.58
2018-03-28T07:30:58.846Z,88.11
2018-03-28T07:33:28.372Z,85.89
2018-03-28T07:35:57.679Z,84.07
2018-03-28T07:38:26.878Z,83.73
2018-03-28T07:40:56.046Z,84.91
2018-03-28T07:43:25.268Z,84.01
2018-03-28T07:45:54.419Z,87.19
2018-03-28T07:48:23.562Z,86.23
2018-03-28T07:50:52.702Z,84.47
2018-03-28T07:53:22.166Z,81.48
2018-03-28T07:55:51.686Z,83.57
2018-03-28T07:58:20.810Z,82.69
2018-03-28T08:00:50.165Z,81.19
2018-03-28T08:03:19.409Z,78.05
2018-03-28T08:05:48.575Z,81.26
2018-03-28T08:08:18.591Z,84.97
2018-03-28T08:10:50.948Z,86.20
2018-03-28T08:13:20.559Z,87.29
2018-03-28T08:15:49.931Z,79.79
2018-03-28T08:18:19.109Z,78.59
2018-03-28T08:20:48.366Z,80.36
2018-03-28T08:23:17.673Z,77.41
2018-03-28T08:25:47.213Z,81.33
2018-03-28T08:28:16.477Z,77.43
2018-03-28T08:30:45.665Z,80.40
2018-03-28T08:33:14.822Z,81.27
2018-03-28T08:35:44.110Z,83.82
2018-03-28T08:38:13.277Z,81.95
2018-03-28T08:40:42.426Z,81.22
2018-03-28T08:43:11.605Z,78.72
2018-03-28T08:45:40.971Z,76.83
2018-03-28T08:48:10.119Z,79.40
2018-03-28T08:50:39.207Z,81.43
2018-03-28T08:53:08.433Z,78.91
2018-03-28T08:55:37.598Z,78.67
2018-03-28T08:58:06.852Z,80.71
2018-03-28T09:00:36.774Z,82.78
2018-03-28T09:03:05.907Z,83.35
2018-03-28T09:05:35.330Z,84.41
2018-03-28T09:08:04.542Z,85.13
2018-03-28T09:10:33.619Z,82.79
2018-03-28T09:13:02.765Z,83.15
2018-03-28T09:15:31.963Z,82.91
2018-03-28T09:18:01.060Z,83.36
2018-03-28T09:20:30.349Z,85.22
2018-03-28T09:22:59.574Z,85.22
2018-03-28T09:25:28.647Z,85.13
2018-03-28T09:27:58.107Z,86.14
2018-03-28T09:30:27.325Z,87.15
2018-03-28T09:32:56.556Z,87.19
2018-03-28T09:35:25.650Z,84.92
2018-03-28T09:37:54.844Z,86.20
2018-03-28T09:40:23.989Z,88.83
2018-03-28T09:42:53.117Z,88.50
2018-03-28T09:45:22.342Z,85.72
2018-03-28T09:47:52.267Z,83.42
2018-03-28T09:50:21.352Z,81.90
2018-03-28T09:52:50.304Z,68.11
2018-03-28T09:55:19.492Z,71.18
2018-03-28T09:57:48.597Z,75.62
2018-03-28T10:00:23.683Z,73.51
2018-03-28T10:02:58.547Z,74.09
2018-03-28T10:05:33.512Z,71.04
2018-03-28T10:08:02.744Z,73.50
2018-03-28T10:10:31.827Z,73.29
2018-03-28T10:13:01.011Z,73.37
2018-03-28T10:15:30.354Z,72.67
2018-03-28T10:17:59.775Z,71.93
2018-03-28T10:20:28.990Z,75.63
2018-03-28T10:22:58.550Z,77.32
2018-03-28T10:25:27.829Z,79.55
2018-03-28T10:27:57.045Z,79.97
2018-03-28T10:30:26.122Z,81.49
2018-03-28T10:32:55.323Z,82.62
2018-03-28T10:35:24.582Z,75.79
2018-03-28T10:37:53.749Z,77.58
2018-03-28T10:40:23.234Z,77.34
2018-03-28T10:42:52.485Z,75.22
2018-03-28T10:45:22.356Z,74.45
2018-03-28T10:47:51.521Z,77.88
2018-03-28T10:50:20.677Z,77.02
2018-03-28T10:52:49.998Z,78.72
2018-03-28T10:55:19.046Z,81.84
2018-03-28T10:57:48.517Z,81.98
2018-03-28T11:00:17.806Z,82.08
2018-03-28T11:02:47.103Z,82.34
2018-03-28T11:05:16.287Z,81.63
2018-03-28T11:07:45.505Z,80.01
2018-03-28T11:10:14.881Z,80.07
2018-03-28T11:12:44.261Z,80.81
2018-03-28T11:15:13.615Z,83.66
2018-03-28T11:17:42.833Z,81.50
2018-03-28T11:20:12.577Z,83.35
2018-03-28T11:22:41.838Z,82.23
2018-03-28T11:25:10.883Z,84.53
2018-03-28T11:27:40.199Z,82.67
2018-03-28T11:30:09.299Z,80.76
2018-03-28T11:32:38.459Z,83.32
2018-03-28T11:35:07.649Z,81.83
2018-03-28T11:37:36.893Z,79.70
2018-03-28T11:40:06.154Z,81.17
2018-03-28T11:42:35.291Z,83.26
2018-03-28T11:45:04.489Z,82.43
2018-03-28T11:47:33.859Z,83.04
2018-03-28T11:50:03.044Z,85.85
2018-03-28T11:52:32.145Z,84.30
2018-03-28T11:55:01.532Z,83.52
2018-03-28T11:57:30.690Z,85.80
2018-03-28T11:59:59.767Z,85.22
2018-03-28T12:02:29.231Z,85.91
2018-03-28T12:04:58.445Z,86.39
2018-03-28T12:07:27.544Z,86.11
2018-03-28T12:09:56.685Z,86.82
2018-03-28T12:12:26.040Z,85.59
2018-03-28T12:14:55.251Z,83.57
2018-03-28T12:17:24.487Z,85.75
2018-03-28T12:19:53.750Z,86.16
2018-03-28T12:22:22.823Z,85.69
2018-03-28T12:24:51.813Z,82.98
2018-03-28T12:27:21.054Z,85.50
2018-03-28T12:29:50.170Z,86.82
2018-03-28T12:32:19.439Z,87.99
2018-03-28T12:34:48.989Z,87.83
2018-03-28T12:37:18.096Z,87.51
2018-03-28T12:39:47.162Z,88.42
2018-03-28T12:42:16.515Z,89.23
2018-03-28T12:44:45.721Z,87.61
2018-03-28T12:47:14.740Z,89.23
2018-03-28T12:49:44.150Z,89.26
2018-03-28T12:52:13.224Z,89.26
2018-03-28T12:54:42.475Z,89.46
2018-03-28T12:57:11.578Z,89.20
2018-03-28T12:59:40.647Z,87.72
2018-03-28T13:02:09.803Z,86.49
2018-03-28T13:04:39.150Z,88.86
2018-03-28T13:07:08.585Z,88.41
2018-03-28T13:09:38.666Z,88.26
2018-03-28T13:12:07.917Z,88.62
2018-03-28T13:14:37.213Z,89.09
2018-03-28T13:17:06.395Z,89.47
2018-03-28T13:19:35.605Z,88.28
2018-03-28T13:22:04.668Z,88.07
2018-03-28T13:24:34.020Z,89.08
2018-03-28T13:27:03.428Z,89.06
2018-03-28T13:29:32.558Z,89.51
2018-03-28T13:32:02.612Z,86.77
2018-03-28T13:34:31.917Z,87.56
2018-03-28T13:37:01.014Z,85.64
2018-03-28T13:39:30.327Z,86.04
2018-03-28T13:41:59.479Z,87.53
2018-03-28T13:44:28.678Z,86.36
2018-03-28T13:46:58.036Z,88.47
2018-03-28T13:49:27.093Z,88.14
2018-03-28T13:51:56.422Z,88.89
2018-03-28T13:54:25.601Z,89.27
2018-03-28T13:56:54.662Z,88.52
2018-03-28T13:59:24.124Z,89.10
2018-03-28T14:01:54.094Z,88.81
2018-03-28T14:04:23.278Z,85.72
2018-03-28T14:06:52.488Z,86.10
2018-03-28T14:09:21.733Z,88.12
2018-03-28T14:11:51.235Z,88.53
2018-03-28T14:14:20.647Z,88.86
2018-03-28T14:16:49.793Z,89.85
2018-03-28T14:19:18.831Z,90.68
2018-03-28T14:21:48.016Z,90.09
2018-03-28T14:24:17.450Z,91.36
2018-03-28T14:26:46.754Z,90.78
2018-03-28T14:29:15.811Z,91.11
2018-03-28T14:31:45.280Z,91.42
2018-03-28T14:34:15.125Z,92.58
2018-03-28T14:36:44.221Z,92.81
2018-03-28T14:39:13.344Z,91.99
2018-03-28T14:41:42.482Z,93.10
2018-03-28T14:44:11.739Z,93.47
2018-03-28T14:46:41.044Z,93.16
2018-03-28T14:49:10.077Z,94.48
2018-03-28T14:51:39.591Z,94.64
2018-03-28T14:54:08.687Z,94.71
2018-03-28T14:56:37.932Z,94.30
2018-03-28T14:59:07.042Z,92.40
2018-03-28T15:01:36.134Z,92.25
2018-03-28T15:04:05.379Z,92.29
2018-03-28T15:06:34.736Z,93.66
2018-03-28T15:09:03.989Z,93.12
2018-03-28T15:11:33.479Z,93.30
2018-03-28T15:14:02.574Z,92.33
2018-03-28T15:16:31.826Z,93.51
2018-03-28T15:19:01.031Z,94.10
2018-03-28T15:21:30.192Z,93.29
2018-03-28T15:23:59.401Z,95.08
2018-03-28T15:26:28.467Z,94.90
2018-03-28T15:28:58.098Z,95.71
2018-03-28T15:31:27.526Z,95.15
2018-03-28T15:33:56.535Z,94.21
2018-03-28T15:36:25.721Z,95.18
2018-03-28T15:38:55.008Z,94.96
2018-03-28T15:41:24.110Z,95.50
2018-03-28T15:43:53.267Z,94.15
2018-03-28T15:46:22.369Z,95.14
2018-03-28T15:48:51.557Z,94.52
2018-03-28T15:51:20.632Z,95.16
2018-03-28T15:53:49.667Z,95.38
2018-03-28T15:56:18.640Z,95.61
2018-03-28T15:58:47.730Z,94.55
2018-03-28T16:01:16.981Z,95.28
2018-03-28T16:03:46.241Z,96.04
2018-03-28T16:06:15.381Z,96.61
2018-03-28T16:08:44.606Z,96.47
2018-03-28T16:11:13.787Z,96.29
2018-03-28T16:13:42.914Z,96.31
2018-03-28T16:16:12.221Z,96.29
2018-03-28T16:18:41.413Z,96.27
2018-03-28T16:21:10.630Z,96.24
2018-03-28T16:23:39.623Z,96.75
2018-03-28T16:26:08.768Z,96.66
2018-03-28T16:28:37.946Z,96.94
2018-03-28T16:31:07.002Z,97.59
2018-03-28T16:33:36.153Z,97.48
2018-03-28T16:36:05.244Z,97.80
2018-03-28T16:38:34.390Z,97.41
2018-03-28T16:41:03.607Z,97.43
2018-03-28T16:43:32.703Z,98.00
2018-03-28T16:46:01.896Z,98.01
2018-03-28T16:48:31.038Z,97.23
2018-03-28T16:51:00.102Z,97.19
2018-03-28T16:53:29.332Z,96.72
2018-03-28T16:55:58.481Z,97.04
2018-03-28T16:58:28.298Z,96.27
2018-03-28T17:00:57.579Z,96.23
2018-03-28T17:03:27.130Z,96.64
2018-03-28T17:05:56.443Z,96.88
2018-03-28T17:08:25.529Z,97.99
2018-03-28T17:10:54.795Z,97.17
2018-03-28T17:13:24.199Z,96.50
2018-03-28T17:15:53.567Z,97.33
2018-03-28T17:18:22.743Z,97.01
2018-03-28T17:20:51.895Z,94.22
2018-03-28T17:23:21.046Z,94.20
2018-03-28T17:25:50.485Z,94.10
2018-03-28T17:28:19.732Z,93.97
2018-03-28T17:30:48.838Z,93.85
2018-03-28T17:33:17.981Z,94.38
2018-03-28T17:35:47.217Z,94.38
2018-03-28T17:38:16.447Z,94.50
2018-03-28T17:40:45.641Z,94.04
2018-03-28T17:43:14.679Z,93.85
2018-03-28T17:45:44.136Z,93.28
2018-03-28T17:48:13.333Z,93.48
2018-03-28T17:50:42.677Z,93.14
2018-03-28T17:53:11.877Z,93.84
2018-03-28T17:55:41.128Z,92.94
2018-03-28T17:58:10.381Z,91.63
2018-03-28T18:00:39.739Z,91.77
2018-03-28T18:03:09.036Z,89.58
2018-03-28T18:05:38.202Z,90.08
2018-03-28T18:08:07.441Z,91.80
2018-03-28T18:10:37.312Z,93.68
2018-03-28T18:13:06.743Z,94.52
2018-03-28T18:15:35.933Z,93.69
2018-03-28T18:18:05.045Z,92.73
2018-03-28T18:20:34.603Z,92.74
2018-03-28T18:23:03.681Z,91.01
2018-03-28T18:25:32.975Z,90.05
2018-03-28T18:28:02.349Z,91.34
2018-03-28T18:30:31.745Z,93.71
2018-03-28T18:33:01.048Z,94.45
2018-03-28T18:35:30.238Z,93.01
2018-03-28T18:37:59.295Z,94.49
2018-03-28T18:40:28.375Z,95.67
2018-03-28T18:42:57.508Z,95.69
2018-03-28T18:45:26.721Z,96.01
2018-03-28T18:47:56.524Z,96.06
2018-03-28T18:50:25.918Z,96.21
2018-03-28T18:52:55.050Z,96.06
2018-03-28T18:55:24.366Z,96.11
2018-03-28T18:57:53.524Z,96.75
2018-03-28T19:00:22.769Z,96.46
2018-03-28T19:02:52.138Z,96.44
2018-03-28T19:05:21.391Z,96.39
2018-03-28T19:07:50.752Z,96.14
2018-03-28T19:10:20.810Z,95.38
2018-03-28T19:12:50.194Z,94.90
2018-03-28T19:15:19.357Z,94.16
2018-03-28T19:17:48.461Z,94.53
2018-03-28T19:20:17.710Z,96.14
2018-03-28T19:22:46.906Z,96.38
2018-03-28T19:25:16.083Z,97.06
2018-03-28T19:27:45.676Z,97.43
2018-03-28T19:30:14.805Z,97.82
2018-03-28T19:32:43.936Z,97.83
2018-03-28T19:35:13.763Z,97.89
2018-03-28T19:37:43.185Z,97.94
2018-03-28T19:40:12.317Z,97.59
2018-03-28T19:42:41.563Z,97.88
2018-03-28T19:45:10.586Z,97.68
2018-03-28T19:47:39.742Z,97.90
2018-03-28T19:50:09.050Z,97.95
2018-03-28T19:52:38.149Z,98.09
2018-03-28T19:55:07.443Z,97.97
2018-03-28T19:57:36.660Z,96.94
2018-03-28T20:00:05.882Z,97.15
2018-03-28T20:02:35.315Z,97.38
2018-03-28T20:05:04.714Z,98.09
2018-03-28T20:07:33.878Z,97.76
2018-03-28T20:10:03.066Z,97.37
2018-03-28T20:12:32.444Z,97.63
2018-03-28T20:15:01.511Z,97.25
2018-03-28T20:17:30.566Z,97.40
2018-03-28T20:19:59.792Z,96.74
2018-03-28T20:22:29.055Z,96.65
2018-03-28T20:24:58.281Z,98.11
2018-03-28T20:27:27.462Z,95.65
2018-03-28T20:29:56.439Z,95.79
2018-03-28T20:32:25.534Z,95.66
2018-03-28T20:34:54.741Z,96.09
2018-03-28T20:37:23.873Z,96.93
2018-03-28T20:39:53.082Z,97.51
2018-03-28T20:42:22.353Z,98.05
2018-03-28T20:44:51.473Z,98.33
2018-03-28T20:47:20.870Z,97.99
2018-03-28T20:49:50.021Z,97.85
2018-03-28T20:52:19.009Z,98.23
2018-03-28T20:54:48.266Z,98.22
2018-03-28T20:57:17.429Z,97.86
2018-03-28T20:59:46.764Z,97.96
2018-03-28T21:02:16.029Z,97.94
2018-03-28T21:04:45.422Z,97.79
2018-03-28T21:07:14.564Z,97.67
2018-03-28T21:09:43.859Z,97.27
2018-03-28T21:12:13.171Z,97.64
2018-03-28T21:14:42.345Z,97.75
2018-03-28T21:17:11.755Z,97.57
2018-03-28T21:19:41.434Z,97.81
2018-03-28T21:22:10.613Z,97.66
2018-03-28T21:24:40.561Z,97.10
2018-03-28T21:27:09.835Z,97.27
2018-03-28T21:29:38.938Z,97.24
2018-03-28T21:32:08.049Z,97.24
2018-03-28T21:34:37.184Z,96.79
2018-03-28T21:37:06.346Z,96.55
2018-03-28T21:39:35.679Z,97.35
2018-03-28T21:42:04.813Z,97.85
2018-03-28T21:44:34.127Z,97.59
2018-03-28T21:47:03.460Z,97.42
2018-03-28T21:49:32.617Z,97.92
2018-03-28T21:52:02.175Z,96.93
2018-03-28T21:54:31.363Z,97.62
2018-03-28T21:57:00.474Z,98.00
2018-03-28T21:59:29.717Z,98.26
2018-03-28T22:01:59.041Z,97.17
2018-03-28T22:04:28.242Z,95.58
2018-03-28T22:06:57.469Z,96.98
2018-03-28T22:09:26.625Z,96.84
2018-03-28T22:11:55.837Z,97.54
2018-03-28T22:14:25.150Z,96.52
2018-03-28T22:16:55.719Z,96.85
2018-03-28T22:19:24.847Z,97.45
2018-03-28T22:21:53.958Z,97.79
2018-03-28T22:24:23.159Z,97.97
2018-03-28T22:26:52.332Z,98.31
2018-03-28T22:29:21.538Z,98.06
2018-03-28T22:31:50.639Z,98.27
2018-03-28T22:34:19.748Z,97.14
2018-03-28T22:36:49.077Z,97.57
2018-03-28T22:39:18.153Z,94.45
2018-03-28T22:41:47.289Z,95.51
2018-03-28T22:44:16.334Z,96.23
2018-03-28T22:46:45.343Z,97.09
2018-03-28T22:49:14.406Z,97.53
2018-03-28T22:51:43.400Z,97.34
2018-03-28T22:54:12.496Z,97.25
2018-03-28T22:56:41.505Z,95.25
2018-03-28T22:59:11.234Z,95.43
2018-03-28T23:01:40.281Z,93.37
2018-03-28T23:04:09.392Z,95.09
2018-03-28T23:06:38.517Z,95.89
2018-03-28T23:09:07.617Z,96.32
2018-03-28T23:11:36.691Z,96.67
2018-03-28T23:14:05.875Z,95.90
2018-03-28T23:16:34.967Z,95.93
2018-03-28T23:19:04.120Z,95.77
2018-03-28T23:21:33.058Z,95.98
2018-03-28T23:24:02.301Z,96.31
2018-03-28T23:26:31.344Z,96.53
2018-03-28T23:29:00.350Z,96.89
2018-03-28T23:31:29.486Z,96.70
2018-03-28T23:33:58.429Z,96.85
2018-03-28T23:36:27.450Z,96.81
2018-03-28T23:38:56.579Z,97.22
2018-03-28T23:41:25.774Z,96.89
2018-03-28T23:43:55.422Z,97.26
2018-03-28T23:46:24.678Z,97.20
2018-03-28T23:48:53.614Z,96.51
2018-03-28T23:51:22.627Z,97.15
2018-03-28T23:53:51.861Z,96.98
2018-03-28T23:56:20.915Z,97.23
2018-03-28T23:58:49.950Z,97.45
